createdAt,value
2022-09-14T00:02:07.145Z,101042.13
2022-09-14T00:04:34.068Z,101050.22
2022-09-14T00:07:00.994Z,101051.09
2022-09-14T00:09:27.749Z,101049.16
2022-09-14T00:11:56.337Z,101031.44
2022-09-14T00:14:23.317Z,101030.22
2022-09-14T00:16:51.035Z,101027.19
2022-09-14T00:19:19.718Z,101025.22
2022-09-14T00:21:50.891Z,101033.25
2022-09-14T00:24:18.010Z,101030.56
2022-09-14T00:26:44.963Z,101023.28
2022-09-14T00:29:13.380Z,101029.81
2022-09-14T00:31:40.882Z,101012.81
2022-09-14T00:34:11.295Z,101024.94
2022-09-14T00:36:39.921Z,101032.00
2022-09-14T00:39:07.420Z,101018.53
2022-09-14T00:41:36.657Z,101010.16
2022-09-14T00:44:05.724Z,101009.31
2022-09-14T00:46:37.105Z,101008.22
2022-09-14T00:49:07.871Z,101012.94
2022-09-14T00:51:37.944Z,101016.94
2022-09-14T00:54:06.990Z,101018.38
2022-09-14T00:56:34.139Z,101012.41
2022-09-14T00:59:06.837Z,101001.97
2022-09-14T01:01:35.373Z,101001.97
2022-09-14T01:04:02.579Z,100987.28
2022-09-14T01:06:36.885Z,100998.50
2022-09-14T01:09:15.737Z,100987.59
2022-09-14T01:11:53.654Z,100989.53
2022-09-14T01:14:28.156Z,100983.44
2022-09-14T01:17:05.420Z,100982.84
2022-09-14T01:19:45.755Z,100978.84
2022-09-14T01:22:18.530Z,100969.63
2022-09-14T01:24:49.361Z,100973.00
2022-09-14T01:27:35.884Z,100977.97
2022-09-14T01:30:08.517Z,100981.72
2022-09-14T01:32:40.972Z,100980.78
2022-09-14T01:35:16.275Z,100971.44
2022-09-14T01:37:45.775Z,100972.03
2022-09-14T01:40:17.917Z,100972.03
2022-09-14T01:42:49.401Z,100970.94
2022-09-14T01:45:19.289Z,100966.72
2022-09-14T01:47:49.490Z,100969.63
2022-09-14T01:50:21.694Z,100966.72
2022-09-14T01:52:53.213Z,100966.72
2022-09-14T01:55:25.977Z,100956.38
2022-09-14T01:58:02.408Z,100945.31
2022-09-14T02:00:31.307Z,100941.94
2022-09-14T02:03:05.807Z,100952.09
2022-09-14T02:05:37.662Z,100935.50
2022-09-14T02:08:04.761Z,100934.66
2022-09-14T02:10:32.086Z,100937.31
2022-09-14T02:13:00.585Z,100932.22
2022-09-14T02:15:27.913Z,100933.66
2022-09-14T02:17:55.397Z,100939.56
2022-09-14T02:20:29.135Z,100933.72
2022-09-14T02:22:55.933Z,100930.53
2022-09-14T02:25:23.060Z,100924.09
2022-09-14T02:27:49.946Z,100932.09
2022-09-14T02:30:20.747Z,100935.09
2022-09-14T02:32:58.361Z,100926.63
2022-09-14T02:35:32.637Z,100922.38
2022-09-14T02:38:08.651Z,100919.38
2022-09-14T02:40:39.076Z,100918.66
2022-09-14T02:43:19.626Z,100917.28
2022-09-14T02:45:55.179Z,100916.44
2022-09-14T02:48:29.970Z,100905.03
2022-09-14T02:51:03.340Z,100907.69
2022-09-14T02:53:37.261Z,100907.38
2022-09-14T02:56:08.369Z,100905.09
2022-09-14T02:58:37.040Z,100897.09
2022-09-14T03:01:07.292Z,100889.09
2022-09-14T03:03:35.813Z,100898.25
2022-09-14T03:06:03.485Z,100889.06
2022-09-14T03:08:30.426Z,100890.63
2022-09-14T03:10:57.428Z,100888.72
2022-09-14T03:13:24.740Z,100892.09
2022-09-14T03:15:51.574Z,100891.63
2022-09-14T03:18:20.020Z,100898.91
2022-09-14T03:20:46.858Z,100889.72
2022-09-14T03:23:14.425Z,100890.69
2022-09-14T03:25:43.280Z,100884.66
2022-09-14T03:28:11.364Z,100875.44
2022-09-14T03:30:38.179Z,100879.66
2022-09-14T03:33:05.697Z,100868.88
2022-09-14T03:35:34.833Z,100864.28
2022-09-14T03:38:03.132Z,100866.09
2022-09-14T03:40:30.516Z,100870.59
2022-09-14T03:42:57.463Z,100873.88
2022-09-14T03:45:24.511Z,100874.25
2022-09-14T03:47:51.418Z,100870.50
2022-09-14T03:50:19.334Z,100867.09
2022-09-14T03:52:47.897Z,100865.75
2022-09-14T03:55:15.477Z,100870.75
2022-09-14T03:57:42.297Z,100862.38
2022-09-14T04:00:10.898Z,100866.13
2022-09-14T04:02:41.194Z,100853.00
2022-09-14T04:05:09.170Z,100859.69
2022-09-14T04:07:36.142Z,100856.50
2022-09-14T04:10:05.861Z,100851.88
2022-09-14T04:12:35.005Z,100848.97
2022-09-14T04:15:02.105Z,100849.81
2022-09-14T04:17:29.034Z,100849.72
2022-09-14T04:19:55.835Z,100841.59
2022-09-14T04:22:22.745Z,100863.31
2022-09-14T04:24:49.495Z,100858.78
2022-09-14T04:27:18.013Z,100852.63
2022-09-14T04:29:45.624Z,100855.31
2022-09-14T04:32:12.369Z,100842.66
2022-09-14T04:34:39.168Z,100846.44
2022-09-14T04:37:05.858Z,100837.06
2022-09-14T04:39:32.645Z,100845.69
2022-09-14T04:41:59.526Z,100845.59
2022-09-14T04:44:27.822Z,100845.09
2022-09-14T04:46:55.176Z,100844.13
2022-09-14T04:49:22.426Z,100842.91
2022-09-14T04:51:49.467Z,100847.00
2022-09-14T04:54:17.680Z,100840.47
2022-09-14T04:56:45.380Z,100833.16
2022-09-14T04:59:12.595Z,100832.09
2022-09-14T05:01:42.419Z,100827.34
2022-09-14T05:04:10.677Z,100834.97
2022-09-14T05:06:40.186Z,100834.72
2022-09-14T05:09:10.621Z,100828.25
2022-09-14T05:11:37.744Z,100821.09
2022-09-14T05:14:05.113Z,100826.19
2022-09-14T05:16:33.859Z,100823.97
2022-09-14T05:19:05.458Z,100821.38
2022-09-14T05:21:34.854Z,100809.00
2022-09-14T05:24:03.108Z,100827.44
2022-09-14T05:26:31.877Z,100825.63
2022-09-14T05:29:00.757Z,100824.66
2022-09-14T05:31:29.218Z,100820.16
2022-09-14T05:33:56.039Z,100818.47
2022-09-14T05:36:24.815Z,100822.84
2022-09-14T05:38:52.168Z,100812.59
2022-09-14T05:41:19.048Z,100820.81
2022-09-14T05:43:46.121Z,100823.94
2022-09-14T05:46:14.539Z,100817.09
2022-09-14T05:48:41.856Z,100817.44
2022-09-14T05:51:11.732Z,100815.09
2022-09-14T05:53:39.898Z,100806.78
2022-09-14T05:56:08.479Z,100812.56
2022-09-14T05:58:36.916Z,100811.34
2022-09-14T06:01:08.451Z,100812.63
2022-09-14T06:03:35.394Z,100827.19
2022-09-14T06:06:02.536Z,100827.06
2022-09-14T06:08:29.385Z,100819.75
2022-09-14T06:11:02.458Z,100825.78
2022-09-14T06:13:29.231Z,100818.22
2022-09-14T06:15:56.693Z,100822.47
2022-09-14T06:18:23.512Z,100823.31
2022-09-14T06:20:51.335Z,100821.91
2022-09-14T06:23:18.535Z,100808.69
2022-09-14T06:25:45.340Z,100819.19
2022-09-14T06:28:13.753Z,100828.38
2022-09-14T06:30:43.291Z,100822.50
2022-09-14T06:33:10.461Z,100820.97
2022-09-14T06:35:37.191Z,100818.44
2022-09-14T06:38:04.068Z,100810.72
2022-09-14T06:40:31.073Z,100802.41
2022-09-14T06:43:02.240Z,100805.25
2022-09-14T06:45:32.487Z,100807.50
2022-09-14T06:47:59.321Z,100805.84
2022-09-14T06:50:26.076Z,100807.56
2022-09-14T06:52:52.929Z,100810.53
2022-09-14T06:55:19.882Z,100813.31
2022-09-14T06:57:48.326Z,100810.81
2022-09-14T07:00:15.845Z,100810.78
2022-09-14T07:02:44.207Z,100808.09
2022-09-14T07:05:11.222Z,100814.00
2022-09-14T07:07:38.167Z,100815.38
2022-09-14T07:10:06.041Z,100822.72
2022-09-14T07:12:32.829Z,100824.13
2022-09-14T07:14:59.583Z,100818.75
2022-09-14T07:17:26.344Z,100823.94
2022-09-14T07:19:54.711Z,100822.78
2022-09-14T07:22:21.359Z,100831.16
2022-09-14T07:24:48.143Z,100824.66
2022-09-14T07:27:14.858Z,100825.81
2022-09-14T07:29:41.701Z,100831.56
2022-09-14T07:32:08.444Z,100837.34
2022-09-14T07:34:35.171Z,100832.22
2022-09-14T07:37:03.346Z,100841.25
2022-09-14T07:39:30.008Z,100836.19
2022-09-14T07:41:57.462Z,100833.13
2022-09-14T07:44:24.624Z,100831.53
2022-09-14T07:46:51.472Z,100831.66
2022-09-14T07:49:18.400Z,100827.84
2022-09-14T07:51:45.761Z,100831.81
2022-09-14T07:54:16.647Z,100843.94
2022-09-14T07:56:43.902Z,100836.75
2022-09-14T07:59:34.533Z,100842.97
2022-09-14T08:01:58.876Z,100831.13
2022-09-14T08:04:26.070Z,100827.16
2022-09-14T08:06:52.789Z,100820.16
2022-09-14T08:09:21.114Z,100827.44
2022-09-14T08:11:47.853Z,100835.66
2022-09-14T08:14:15.592Z,100829.16
2022-09-14T08:16:42.459Z,100829.16
2022-09-14T08:19:13.441Z,100831.16
2022-09-14T08:21:45.636Z,100824.66
2022-09-14T08:24:15.111Z,100819.59
2022-09-14T08:26:43.685Z,100820.44
2022-09-14T08:29:12.229Z,100820.41
2022-09-14T08:31:39.598Z,100817.84
2022-09-14T08:34:07.306Z,100833.38
2022-09-14T08:36:36.485Z,100829.41
2022-09-14T08:39:03.761Z,100827.84
2022-09-14T08:41:33.478Z,100827.13
2022-09-14T08:44:10.916Z,100820.31
2022-09-14T08:46:41.810Z,100823.34
2022-09-14T08:49:13.547Z,100813.25
2022-09-14T08:51:40.496Z,100809.88
2022-09-14T08:54:09.797Z,100804.44
2022-09-14T08:56:39.207Z,100803.91
2022-09-14T08:59:23.140Z,100790.38
2022-09-14T09:02:01.198Z,100800.38
2022-09-14T09:04:50.135Z,100790.38
2022-09-14T09:07:21.887Z,100794.56
2022-09-14T09:09:50.988Z,100791.06
2022-09-14T09:12:20.767Z,100789.84
2022-09-14T09:14:53.476Z,100787.59
2022-09-14T09:17:25.192Z,100783.25
2022-09-14T09:20:03.913Z,100775.16
2022-09-14T09:22:38.265Z,100787.28
2022-09-14T09:25:10.184Z,100781.66
2022-09-14T09:27:37.504Z,100781.59
2022-09-14T09:30:07.719Z,100787.00
2022-09-14T09:32:36.820Z,100791.63
2022-09-14T09:35:19.444Z,100788.06
2022-09-14T09:37:53.415Z,100781.72
2022-09-14T09:40:27.978Z,100777.78
2022-09-14T09:43:10.068Z,100782.53
2022-09-14T09:45:51.247Z,100785.84
2022-09-14T09:48:22.250Z,100782.53
2022-09-14T09:51:02.235Z,100778.13
2022-09-14T09:53:29.239Z,100782.00
2022-09-14T09:55:57.175Z,100784.53
2022-09-14T09:58:30.808Z,100794.00
2022-09-14T10:01:01.181Z,100778.63
2022-09-14T10:03:34.448Z,100781.31
2022-09-14T10:06:04.241Z,100782.59
2022-09-14T10:08:35.870Z,100783.06
2022-09-14T10:11:03.605Z,100774.28
2022-09-14T10:13:36.468Z,100779.09
2022-09-14T10:16:08.794Z,100775.41
2022-09-14T10:18:35.683Z,100764.47
2022-09-14T10:21:09.102Z,100773.13
2022-09-14T10:23:37.601Z,100765.63
2022-09-14T10:26:24.862Z,100773.00
2022-09-14T10:28:52.215Z,100775.69
2022-09-14T10:31:27.969Z,100773.59
2022-09-14T10:33:56.787Z,100776.72
2022-09-14T10:36:29.399Z,100765.53
2022-09-14T10:39:00.822Z,100784.88
2022-09-14T10:41:35.346Z,100781.88
2022-09-14T10:44:28.640Z,100780.78
2022-09-14T10:47:13.583Z,100761.69
2022-09-14T10:49:53.800Z,100752.78
2022-09-14T10:52:26.671Z,100755.16
2022-09-14T10:55:19.075Z,100747.03
2022-09-14T10:58:00.510Z,100758.53
2022-09-14T11:00:31.328Z,100746.63
2022-09-14T11:03:32.617Z,100757.03
2022-09-14T11:06:08.112Z,100751.88
2022-09-14T11:08:44.278Z,100748.63
2022-09-14T11:11:42.165Z,100746.47
2022-09-14T11:14:21.256Z,100753.47
2022-09-14T11:17:02.480Z,100746.75
2022-09-14T11:19:38.463Z,100768.84
2022-09-14T11:22:12.918Z,100758.97
2022-09-14T11:24:44.976Z,100753.56
2022-09-14T11:27:16.985Z,100770.56
2022-09-14T11:29:51.124Z,100766.22
2022-09-14T11:32:22.430Z,100762.16
2022-09-14T11:34:56.217Z,100758.44
2022-09-14T11:37:31.241Z,100765.09
2022-09-14T11:40:01.900Z,100760.06
2022-09-14T11:42:34.163Z,100745.81
2022-09-14T11:45:05.323Z,100768.50
2022-09-14T11:47:38.776Z,100757.75
2022-09-14T11:50:18.668Z,100753.72
2022-09-14T11:52:45.479Z,100753.09
2022-09-14T11:55:17.486Z,100762.06
2022-09-14T11:57:45.928Z,100756.53
2022-09-14T12:00:45.302Z,100747.88
2022-09-14T12:03:18.341Z,100750.13
2022-09-14T12:05:47.752Z,100759.84
2022-09-14T12:08:37.195Z,100757.41
2022-09-14T12:11:28.858Z,100756.94
2022-09-14T12:14:28.803Z,100754.47
2022-09-14T12:20:32.051Z,100753.09
2022-09-14T12:23:27.188Z,100759.50
2022-09-14T12:25:58.982Z,100757.63
2022-09-14T12:28:39.321Z,100745.94
2022-09-14T12:31:11.676Z,100748.78
2022-09-14T12:34:01.060Z,100743.53
2022-09-14T12:36:58.210Z,100741.78
2022-09-14T12:39:28.736Z,100754.03
2022-09-14T12:42:03.939Z,100755.03
2022-09-14T12:44:40.936Z,100756.19
2022-09-14T12:47:53.473Z,100752.44
2022-09-14T12:50:22.902Z,100746.91
2022-09-14T12:53:00.895Z,100739.91
2022-09-14T12:55:45.903Z,100743.75
2022-09-14T12:58:44.099Z,100738.03
2022-09-14T13:01:25.552Z,100739.31
2022-09-14T13:03:54.899Z,100736.06
2022-09-14T13:06:23.038Z,100732.50
2022-09-14T13:08:53.860Z,100730.63
2022-09-14T13:11:26.730Z,100732.09
2022-09-14T13:13:55.459Z,100729.53
2022-09-14T13:16:34.698Z,100724.97
2022-09-14T13:19:03.258Z,100728.69
2022-09-14T13:21:30.026Z,100725.47
2022-09-14T13:23:56.904Z,100713.28
2022-09-14T13:26:27.789Z,100720.47
2022-09-14T13:28:56.590Z,100727.25
2022-09-14T13:31:28.745Z,100720.44
2022-09-14T13:33:56.464Z,100712.72
2022-09-14T13:36:25.725Z,100717.75
2022-09-14T13:38:54.014Z,100718.44
2022-09-14T13:41:23.063Z,100715.47
2022-09-14T13:43:54.337Z,100707.09
2022-09-14T13:46:22.245Z,100712.50
2022-09-14T13:48:49.934Z,100706.44
2022-09-14T13:51:16.963Z,100707.13
2022-09-14T13:53:48.589Z,100703.72
2022-09-14T13:56:17.674Z,100707.44
2022-09-14T13:58:45.712Z,100707.59
2022-09-14T14:01:25.294Z,100696.31
2022-09-14T14:03:52.388Z,100694.81
2022-09-14T14:06:26.022Z,100693.94
2022-09-14T14:08:56.406Z,100689.91
2022-09-14T14:11:29.027Z,100687.53
2022-09-14T14:13:55.927Z,100686.53
2022-09-14T14:16:26.717Z,100683.81
2022-09-14T14:18:54.860Z,100677.06
2022-09-14T14:21:31.130Z,100679.78
2022-09-14T14:24:17.922Z,100675.72
2022-09-14T14:26:48.048Z,100680.78
2022-09-14T14:29:18.548Z,100680.09
2022-09-14T14:31:47.093Z,100673.53
2022-09-14T14:34:19.716Z,100680.28
2022-09-14T14:36:48.094Z,100678.59
2022-09-14T14:39:14.922Z,100672.69
2022-09-14T14:41:43.045Z,100674.44
2022-09-14T14:44:15.479Z,100672.59
2022-09-14T14:46:42.612Z,100675.31
2022-09-14T14:49:12.625Z,100663.84
2022-09-14T14:51:39.790Z,100657.75
2022-09-14T14:54:06.769Z,100654.13
2022-09-14T14:56:34.958Z,100657.19
2022-09-14T14:59:02.436Z,100665.28
2022-09-14T15:01:29.392Z,100659.53
2022-09-14T15:03:56.258Z,100658.53
2022-09-14T15:06:27.631Z,100662.75
2022-09-14T15:08:55.747Z,100663.59
2022-09-14T15:11:22.937Z,100651.47
2022-09-14T15:13:50.086Z,100650.97
2022-09-14T15:16:17.525Z,100655.84
2022-09-14T15:18:44.788Z,100648.41
2022-09-14T15:21:11.872Z,100647.97
2022-09-14T15:23:40.508Z,100654.91
2022-09-14T15:26:07.746Z,100652.31
2022-09-14T15:28:38.507Z,100653.19
2022-09-14T15:31:07.693Z,100656.72
2022-09-14T15:33:34.803Z,100656.19
2022-09-14T15:36:03.421Z,100651.66
2022-09-14T15:38:30.441Z,100650.50
2022-09-14T15:40:58.562Z,100655.47
2022-09-14T15:43:25.427Z,100649.75
2022-09-14T15:45:52.468Z,100647.25
2022-09-14T15:48:19.550Z,100648.41
2022-09-14T15:50:48.133Z,100646.72
2022-09-14T15:53:17.298Z,100639.97
2022-09-14T15:55:45.413Z,100635.94
2022-09-14T15:58:13.715Z,100630.53
2022-09-14T16:00:44.462Z,100640.94
2022-09-14T16:03:11.370Z,100640.06
2022-09-14T16:05:38.548Z,100626.38
2022-09-14T16:08:05.778Z,100649.66
2022-09-14T16:10:32.573Z,100646.78
2022-09-14T16:12:59.433Z,100642.22
2022-09-14T16:15:27.624Z,100647.88
2022-09-14T16:17:55.667Z,100649.72
2022-09-14T16:20:23.058Z,100651.03
2022-09-14T16:22:50.617Z,100649.97
2022-09-14T16:25:17.773Z,100653.13
2022-09-14T16:27:45.004Z,100653.78
2022-09-14T16:30:12.811Z,100659.53
2022-09-14T16:32:41.021Z,100662.34
2022-09-14T16:35:08.552Z,100650.72
2022-09-14T16:37:35.704Z,100650.53
2022-09-14T16:40:03.373Z,100657.91
2022-09-14T16:42:30.224Z,100661.38
2022-09-14T16:44:57.369Z,100660.31
2022-09-14T16:47:25.816Z,100666.31
2022-09-14T16:49:54.291Z,100665.41
2022-09-14T16:52:21.202Z,100673.78
2022-09-14T16:54:47.971Z,100672.56
2022-09-14T16:57:14.802Z,100676.25
2022-09-14T16:59:41.760Z,100678.59
2022-09-14T17:02:11.147Z,100684.94
2022-09-14T17:04:38.138Z,100682.22
2022-09-14T17:07:06.531Z,100679.59
2022-09-14T17:09:34.332Z,100680.06
2022-09-14T17:12:01.180Z,100674.16
2022-09-14T17:14:31.074Z,100676.16
2022-09-14T17:16:58.788Z,100678.13
2022-09-14T17:19:25.794Z,100687.34
2022-09-14T17:21:53.173Z,100688.34
2022-09-14T17:24:21.426Z,100677.59
2022-09-14T17:26:48.285Z,100684.91
2022-09-14T17:29:15.526Z,100680.75
2022-09-14T17:31:44.039Z,100685.13
2022-09-14T17:34:13.434Z,100680.06
2022-09-14T17:36:40.297Z,100684.03
2022-09-14T17:39:11.679Z,100681.84
2022-09-14T17:41:40.506Z,100683.59
2022-09-14T17:44:10.048Z,100686.50
2022-09-14T17:46:43.240Z,100685.00
2022-09-14T17:49:16.192Z,100682.84
2022-09-14T17:51:45.310Z,100690.78
2022-09-14T17:54:12.792Z,100691.81
2022-09-14T17:56:40.982Z,100692.09
2022-09-14T17:59:11.127Z,100696.16
2022-09-14T18:01:38.350Z,100693.63
2022-09-14T18:04:07.490Z,100696.16
2022-09-14T18:06:37.017Z,100693.94
2022-09-14T18:09:04.683Z,100699.44
2022-09-14T18:11:32.012Z,100696.25
2022-09-14T18:14:00.433Z,100699.25
2022-09-14T18:16:27.755Z,100708.63
2022-09-14T18:18:57.148Z,100706.25
2022-09-14T18:21:24.507Z,100705.91
2022-09-14T18:23:52.341Z,100704.81
2022-09-14T18:26:20.287Z,100710.03
2022-09-14T18:28:47.201Z,100712.59
2022-09-14T18:31:17.966Z,100697.91
2022-09-14T18:33:48.579Z,100711.88
2022-09-14T18:36:15.397Z,100726.53
2022-09-14T18:38:42.684Z,100721.59
2022-09-14T18:41:11.629Z,100721.03
2022-09-14T18:43:41.935Z,100719.59
2022-09-14T18:46:08.829Z,100716.06
2022-09-14T18:48:37.210Z,100727.59
2022-09-14T18:51:05.244Z,100726.69
2022-09-14T18:53:32.108Z,100740.88
2022-09-14T18:56:02.036Z,100723.50
2022-09-14T18:58:32.112Z,100738.41
2022-09-14T19:00:59.008Z,100736.78
2022-09-14T19:03:26.015Z,100747.47
2022-09-14T19:05:54.153Z,100743.38
2022-09-14T19:08:21.049Z,100739.97
2022-09-14T19:10:47.876Z,100740.84
2022-09-14T19:13:14.896Z,100742.75
2022-09-14T19:15:41.774Z,100744.16
2022-09-14T19:18:09.114Z,100752.66
2022-09-14T19:21:04.689Z,100751.53
2022-09-14T19:23:27.623Z,100747.34
2022-09-14T19:25:54.362Z,100752.44
2022-09-14T19:28:21.073Z,100753.75
2022-09-14T19:30:48.860Z,100760.28
2022-09-14T19:33:15.655Z,100755.81
2022-09-14T19:35:42.391Z,100763.03
2022-09-14T19:38:09.071Z,100758.28
2022-09-14T19:40:37.267Z,100757.03
2022-09-14T19:43:04.098Z,100743.53
2022-09-14T19:45:31.724Z,100740.28
2022-09-14T19:47:59.044Z,100733.34
2022-09-14T19:50:25.819Z,100742.53
2022-09-14T19:52:53.436Z,100740.84
2022-09-14T19:55:20.201Z,100730.00
2022-09-14T19:57:48.861Z,100715.75
2022-09-14T20:00:18.179Z,100724.34
2022-09-14T20:02:45.121Z,100742.00
2022-09-14T20:05:12.262Z,100747.22
2022-09-14T20:07:39.065Z,100717.47
2022-09-14T20:10:06.736Z,100727.34
2022-09-14T20:12:33.696Z,100741.88
2022-09-14T20:15:02.192Z,100740.91
2022-09-14T20:17:29.076Z,100711.66
2022-09-14T20:19:56.045Z,100725.81
2022-09-14T20:22:23.060Z,100729.34
2022-09-14T20:24:50.311Z,100734.25
2022-09-14T20:27:17.692Z,100734.25
2022-09-14T20:29:44.507Z,100733.16
2022-09-14T20:32:12.684Z,100733.69
2022-09-14T20:34:39.626Z,100728.22
2022-09-14T20:37:06.432Z,100728.22
2022-09-14T20:39:36.029Z,100730.22
2022-09-14T20:42:03.146Z,100733.47
2022-09-14T20:44:30.198Z,100738.94
2022-09-14T20:46:57.102Z,100738.09
2022-09-14T20:49:25.386Z,100740.66
2022-09-14T20:51:57.375Z,100738.81
2022-09-14T20:54:24.839Z,100731.03
2022-09-14T20:56:51.652Z,100738.34
2022-09-14T20:59:19.765Z,100736.66
2022-09-14T21:01:49.419Z,100733.28
2022-09-14T21:04:18.606Z,100721.56
2022-09-14T21:06:49.474Z,100734.13
2022-09-14T21:09:18.291Z,100732.16
2022-09-14T21:11:46.027Z,100744.28
2022-09-14T21:14:13.915Z,100744.00
2022-09-14T21:16:43.150Z,100746.28
2022-09-14T21:19:13.474Z,100747.13
2022-09-14T21:21:40.529Z,100747.97
2022-09-14T21:24:12.055Z,100750.78
2022-09-14T21:26:42.700Z,100744.31
2022-09-14T21:29:14.475Z,100741.78
2022-09-14T21:31:41.633Z,100746.84
2022-09-14T21:34:10.427Z,100744.19
2022-09-14T21:36:39.298Z,100749.38
2022-09-14T21:39:09.225Z,100748.41
2022-09-14T21:41:36.574Z,100750.94
2022-09-14T21:44:03.872Z,100746.13
2022-09-14T21:46:31.084Z,100740.63
2022-09-14T21:48:58.129Z,100751.06
2022-09-14T21:51:26.796Z,100747.94
2022-09-14T21:53:55.053Z,100755.28
2022-09-14T21:56:25.278Z,100754.72
2022-09-14T21:58:53.994Z,100752.41
2022-09-14T22:01:24.525Z,100749.00
2022-09-14T22:03:52.976Z,100757.94
2022-09-14T22:06:22.564Z,100757.53
2022-09-14T22:08:50.444Z,100748.34
2022-09-14T22:11:23.089Z,100754.53
2022-09-14T22:13:54.541Z,100761.44
2022-09-14T22:16:23.216Z,100756.09
2022-09-14T22:18:52.737Z,100754.66
2022-09-14T22:21:21.512Z,100753.66
2022-09-14T22:23:53.375Z,100758.28
2022-09-14T22:26:21.522Z,100756.00
2022-09-14T22:28:49.781Z,100757.41
2022-09-14T22:31:20.382Z,100758.75
2022-09-14T22:33:47.724Z,100765.38
2022-09-14T22:36:15.323Z,100765.50
2022-09-14T22:38:42.564Z,100765.44
2022-09-14T22:41:11.855Z,100769.66
2022-09-14T22:43:40.054Z,100760.47
2022-09-14T22:46:08.034Z,100765.13
2022-09-14T22:48:37.117Z,100770.34
2022-09-14T22:51:05.921Z,100766.34
2022-09-14T22:53:34.071Z,100769.03
2022-09-14T22:56:07.998Z,100777.56
2022-09-14T22:58:35.066Z,100773.94
2022-09-14T23:01:06.346Z,100773.06
2022-09-14T23:03:33.469Z,100769.03
2022-09-14T23:06:02.055Z,100764.09
2022-09-14T23:08:29.446Z,100767.84
2022-09-14T23:10:56.597Z,100770.44
2022-09-14T23:13:23.572Z,100769.63
2022-09-14T23:15:50.378Z,100775.19
2022-09-14T23:18:17.427Z,100773.97
2022-09-14T23:20:45.195Z,100788.84
2022-09-14T23:23:13.606Z,100786.13
2022-09-14T23:25:41.468Z,100792.25
2022-09-14T23:28:11.077Z,100786.34
2022-09-14T23:30:38.703Z,100787.41
2022-09-14T23:33:05.603Z,100796.47
2022-09-14T23:35:36.920Z,100791.00
2022-09-14T23:38:04.519Z,100795.84
2022-09-14T23:40:32.809Z,100794.56
2022-09-14T23:42:59.893Z,100795.16
2022-09-14T23:45:27.042Z,100794.84
2022-09-14T23:47:53.858Z,100797.09
2022-09-14T23:50:20.701Z,100798.47
2022-09-14T23:52:47.582Z,100801.28
2022-09-14T23:55:14.839Z,100789.00
2022-09-14T23:57:43.051Z,100793.50
